createdAt,value
2022-10-24T00:01:40.749Z,16.30
2022-10-24T00:04:09.067Z,16.30
2022-10-24T00:06:37.103Z,16.40
2022-10-24T00:09:05.374Z,16.30
2022-10-24T00:11:33.453Z,16.30
2022-10-24T00:14:01.953Z,16.40
2022-10-24T00:16:30.219Z,16.40
2022-10-24T00:18:59.703Z,16.40
2022-10-24T00:21:27.847Z,16.40
2022-10-24T00:23:55.815Z,16.40
2022-10-24T00:26:23.797Z,16.40
2022-10-24T00:28:51.931Z,16.30
2022-10-24T00:31:20.743Z,16.30
2022-10-24T00:33:48.769Z,16.30
2022-10-24T00:36:20.445Z,16.30
2022-10-24T00:38:48.746Z,16.30
2022-10-24T00:41:17.686Z,16.40
2022-10-24T00:43:46.359Z,16.40
2022-10-24T00:46:15.677Z,16.40
2022-10-24T00:48:46.544Z,16.40
2022-10-24T00:51:24.452Z,16.30
2022-10-24T00:56:30.447Z,16.40
2022-10-24T00:59:00.531Z,16.30
2022-10-24T01:01:29.409Z,16.40
2022-10-24T01:03:57.501Z,16.40
2022-10-24T01:06:41.815Z,16.40
2022-10-24T01:09:25.439Z,16.30
2022-10-24T01:12:05.015Z,16.40
2022-10-24T01:14:45.338Z,16.40
2022-10-24T01:17:20.232Z,16.30
2022-10-24T01:20:25.080Z,16.40
2022-10-24T01:23:07.578Z,16.40
2022-10-24T01:25:44.969Z,16.40
2022-10-24T01:28:16.394Z,16.40
2022-10-24T01:30:49.706Z,16.50
2022-10-24T01:33:24.306Z,16.50
2022-10-24T01:35:57.151Z,16.50
2022-10-24T01:38:29.532Z,16.50
2022-10-24T01:41:01.117Z,16.50
2022-10-24T01:43:32.761Z,16.40
2022-10-24T01:46:05.247Z,16.40
2022-10-24T01:48:36.638Z,16.40
2022-10-24T01:51:07.255Z,16.40
2022-10-24T01:53:36.574Z,16.40
2022-10-24T01:56:05.042Z,16.40
2022-10-24T01:58:33.050Z,16.40
2022-10-24T02:01:06.853Z,16.40
2022-10-24T02:03:37.976Z,16.40
2022-10-24T02:06:10.450Z,16.40
2022-10-24T02:08:42.576Z,16.40
2022-10-24T02:11:12.105Z,16.40
2022-10-24T02:13:46.643Z,16.40
2022-10-24T02:16:18.547Z,16.50
2022-10-24T02:18:48.077Z,16.40
2022-10-24T02:21:26.481Z,16.50
2022-10-24T02:23:59.537Z,16.40
2022-10-24T02:26:32.497Z,16.40
2022-10-24T02:29:05.638Z,16.40
2022-10-24T02:31:39.733Z,16.40
2022-10-24T02:34:09.893Z,16.40
2022-10-24T02:36:40.139Z,16.40
2022-10-24T02:39:10.420Z,16.40
2022-10-24T02:41:41.812Z,16.40
2022-10-24T02:44:11.709Z,16.40
2022-10-24T02:46:43.366Z,16.40
2022-10-24T02:49:11.516Z,16.40
2022-10-24T02:51:44.042Z,16.40
2022-10-24T02:54:12.104Z,16.40
2022-10-24T02:56:43.916Z,16.40
2022-10-24T02:59:11.895Z,16.40
2022-10-24T03:01:41.267Z,16.40
2022-10-24T03:04:09.279Z,16.40
2022-10-24T03:06:37.261Z,16.40
2022-10-24T03:09:05.331Z,16.50
2022-10-24T03:11:33.289Z,16.50
2022-10-24T03:14:01.290Z,16.50
2022-10-24T03:16:29.297Z,16.50
2022-10-24T03:18:58.933Z,16.40
2022-10-24T03:21:26.904Z,16.40
2022-10-24T03:23:54.913Z,16.50
2022-10-24T03:26:22.908Z,16.50
2022-10-24T03:28:50.893Z,16.50
2022-10-24T03:31:18.894Z,16.50
2022-10-24T03:33:46.945Z,16.50
2022-10-24T03:36:16.231Z,16.50
2022-10-24T03:38:44.254Z,16.40
2022-10-24T03:41:12.245Z,16.50
2022-10-24T03:43:40.227Z,16.40
2022-10-24T03:46:08.242Z,16.40
2022-10-24T03:48:36.310Z,16.40
2022-10-24T03:51:04.325Z,16.40
2022-10-24T03:53:33.705Z,16.40
2022-10-24T03:56:01.714Z,16.50
2022-10-24T03:58:29.746Z,16.50
2022-10-24T04:00:59.041Z,16.50
2022-10-24T04:03:28.089Z,16.50
2022-10-24T04:05:56.391Z,16.50
2022-10-24T04:08:24.378Z,16.50
2022-10-24T04:10:53.744Z,16.50
2022-10-24T04:13:22.256Z,16.50
2022-10-24T04:15:50.313Z,16.50
2022-10-24T04:18:18.356Z,16.50
2022-10-24T04:20:46.416Z,16.40
2022-10-24T04:23:14.605Z,16.50
2022-10-24T04:25:42.949Z,16.50
2022-10-24T04:28:12.257Z,16.50
2022-10-24T04:30:40.360Z,16.50
2022-10-24T04:33:08.370Z,16.50
2022-10-24T04:35:36.440Z,16.50
2022-10-24T04:38:04.443Z,16.50
2022-10-24T04:40:32.458Z,16.50
2022-10-24T04:43:00.384Z,16.50
2022-10-24T04:45:29.791Z,16.50
2022-10-24T04:47:57.837Z,16.50
2022-10-24T04:50:25.790Z,16.50
2022-10-24T04:52:53.763Z,16.50
2022-10-24T04:55:21.805Z,16.60
2022-10-24T04:57:49.836Z,16.60
2022-10-24T05:00:18.301Z,16.60
2022-10-24T05:02:47.962Z,16.60
2022-10-24T05:05:17.094Z,16.50
2022-10-24T05:07:45.299Z,16.50
2022-10-24T05:10:14.730Z,16.50
2022-10-24T05:12:44.268Z,16.50
2022-10-24T05:15:14.228Z,16.50
2022-10-24T05:17:42.632Z,16.50
2022-10-24T05:20:12.649Z,16.50
2022-10-24T05:22:40.755Z,16.50
2022-10-24T05:25:09.825Z,16.50
2022-10-24T05:27:37.783Z,16.50
2022-10-24T05:30:06.990Z,16.50
2022-10-24T05:32:38.704Z,16.50
2022-10-24T05:35:09.262Z,16.50
2022-10-24T05:37:39.129Z,16.50
2022-10-24T05:40:09.226Z,16.50
2022-10-24T05:42:38.622Z,16.50
2022-10-24T05:45:07.849Z,16.50
2022-10-24T05:47:35.806Z,16.40
2022-10-24T05:50:03.987Z,16.40
2022-10-24T05:52:32.023Z,16.40
2022-10-24T05:55:08.830Z,16.30
2022-10-24T05:57:37.471Z,16.40
2022-10-24T06:00:07.416Z,16.30
2022-10-24T06:02:40.025Z,16.30
2022-10-24T06:05:08.758Z,16.40
2022-10-24T06:07:37.146Z,16.40
2022-10-24T06:10:07.750Z,16.40
2022-10-24T06:12:37.104Z,16.40
2022-10-24T06:15:06.589Z,16.30
2022-10-24T06:17:34.722Z,16.40
2022-10-24T06:20:02.784Z,16.30
2022-10-24T06:22:30.768Z,16.40
2022-10-24T06:24:59.985Z,16.30
2022-10-24T06:27:29.364Z,16.30
2022-10-24T06:29:57.470Z,16.30
2022-10-24T06:32:25.787Z,16.30
2022-10-24T06:34:53.757Z,16.40
2022-10-24T06:37:21.837Z,16.30
2022-10-24T06:39:49.870Z,16.30
2022-10-24T06:42:17.944Z,16.30
2022-10-24T06:44:47.329Z,16.30
2022-10-24T06:47:15.427Z,16.30
2022-10-24T06:49:43.522Z,16.30
2022-10-24T06:52:11.493Z,16.30
2022-10-24T06:54:41.090Z,16.30
2022-10-24T06:57:09.172Z,16.40
2022-10-24T06:59:37.241Z,16.30
2022-10-24T07:02:06.809Z,16.30
2022-10-24T07:04:34.979Z,16.30
2022-10-24T07:07:03.099Z,16.30
2022-10-24T07:09:34.897Z,16.30
2022-10-24T07:12:03.406Z,16.40
2022-10-24T07:14:31.416Z,16.40
2022-10-24T07:16:59.538Z,16.40
2022-10-24T07:19:28.898Z,16.50
2022-10-24T07:21:56.924Z,16.50
2022-10-24T07:24:24.964Z,16.60
2022-10-24T07:26:52.948Z,16.60
2022-10-24T07:29:20.955Z,16.70
2022-10-24T07:31:49.533Z,16.70
2022-10-24T07:34:18.109Z,16.80
2022-10-24T07:36:47.549Z,16.80
2022-10-24T07:39:15.617Z,16.90
2022-10-24T07:41:44.319Z,16.90
2022-10-24T07:44:12.403Z,16.90
2022-10-24T07:46:42.154Z,17.00
2022-10-24T07:49:10.589Z,17.10
2022-10-24T07:51:38.768Z,17.10
2022-10-24T07:54:08.566Z,17.10
2022-10-24T07:56:36.876Z,17.20
2022-10-24T07:59:09.507Z,17.20
2022-10-24T08:01:41.919Z,17.30
2022-10-24T08:04:10.940Z,17.30
2022-10-24T08:06:40.670Z,17.30
2022-10-24T08:09:10.504Z,17.40
2022-10-24T08:11:38.535Z,17.40
2022-10-24T08:14:06.826Z,17.50
2022-10-24T08:16:34.899Z,17.50
2022-10-24T08:19:02.890Z,17.50
2022-10-24T08:21:31.672Z,17.60
2022-10-24T08:23:59.791Z,17.60
2022-10-24T08:26:29.247Z,17.70
2022-10-24T08:28:57.913Z,17.80
2022-10-24T08:31:27.015Z,17.90
2022-10-24T08:33:56.717Z,17.90
2022-10-24T08:36:26.948Z,17.90
2022-10-24T08:38:55.336Z,18.00
2022-10-24T08:41:32.772Z,18.00
2022-10-24T08:44:03.420Z,17.90
2022-10-24T08:46:50.247Z,17.90
2022-10-24T08:49:29.597Z,17.90
2022-10-24T08:52:02.564Z,18.00
2022-10-24T08:54:36.843Z,18.10
2022-10-24T08:57:07.582Z,18.20
2022-10-24T08:59:37.645Z,18.30
2022-10-24T09:02:14.916Z,18.40
2022-10-24T09:04:50.294Z,18.40
2022-10-24T09:07:21.095Z,18.30
2022-10-24T09:09:51.315Z,18.40
2022-10-24T09:12:21.958Z,18.40
2022-10-24T09:14:55.599Z,18.50
2022-10-24T09:17:25.884Z,18.60
2022-10-24T09:19:55.975Z,18.70
2022-10-24T09:22:25.098Z,18.80
2022-10-24T09:24:56.266Z,18.90
2022-10-24T09:27:29.468Z,19.00
2022-10-24T09:29:58.945Z,19.20
2022-10-24T09:32:30.605Z,19.20
2022-10-24T09:35:01.637Z,19.30
2022-10-24T09:37:40.480Z,19.30
2022-10-24T09:40:21.932Z,19.20
2022-10-24T09:43:01.548Z,19.20
2022-10-24T09:45:40.037Z,19.20
2022-10-24T09:48:19.344Z,19.20
2022-10-24T09:50:49.531Z,19.20
2022-10-24T09:53:26.953Z,19.20
2022-10-24T09:55:58.390Z,19.30
2022-10-24T09:58:32.719Z,19.30
2022-10-24T10:01:06.395Z,19.30
2022-10-24T10:03:35.715Z,19.20
2022-10-24T10:06:15.318Z,19.20
2022-10-24T10:08:49.637Z,19.10
2022-10-24T10:11:26.458Z,19.00
2022-10-24T10:13:55.962Z,19.00
2022-10-24T10:16:26.346Z,19.00
2022-10-24T10:19:03.327Z,19.00
2022-10-24T10:21:57.771Z,19.10
2022-10-24T10:24:28.838Z,19.20
2022-10-24T10:26:56.929Z,19.20
2022-10-24T10:29:25.325Z,19.20
2022-10-24T10:31:59.493Z,19.20
2022-10-24T10:34:35.211Z,19.20
2022-10-24T10:37:32.670Z,19.10
2022-10-24T10:40:24.199Z,19.10
2022-10-24T10:43:11.563Z,19.00
2022-10-24T10:45:43.125Z,19.00
2022-10-24T10:48:30.852Z,19.00
2022-10-24T10:51:08.177Z,19.00
2022-10-24T10:53:44.490Z,19.10
2022-10-24T10:56:24.271Z,19.10
2022-10-24T10:59:20.310Z,19.10
2022-10-24T11:01:57.937Z,19.10
2022-10-24T11:04:37.354Z,19.20
2022-10-24T11:07:12.242Z,19.20
2022-10-24T11:09:46.133Z,19.20
2022-10-24T11:12:20.711Z,19.20
2022-10-24T11:14:54.506Z,19.20
2022-10-24T11:17:25.039Z,19.30
2022-10-24T11:20:02.534Z,19.30
2022-10-24T11:22:36.279Z,19.40
2022-10-24T11:25:20.525Z,19.40
2022-10-24T11:27:55.262Z,19.40
2022-10-24T11:30:41.584Z,19.40
2022-10-24T11:33:16.374Z,19.40
2022-10-24T11:36:01.647Z,19.40
2022-10-24T11:38:31.741Z,19.40
2022-10-24T11:41:27.943Z,19.40
2022-10-24T11:44:00.088Z,19.30
2022-10-24T11:46:38.401Z,19.30
2022-10-24T11:49:13.911Z,19.30
2022-10-24T11:51:46.066Z,19.30
2022-10-24T11:54:22.790Z,19.30
2022-10-24T11:56:57.249Z,19.20
2022-10-24T11:59:25.674Z,19.10
2022-10-24T12:02:24.618Z,19.10
2022-10-24T12:05:22.196Z,19.10
2022-10-24T12:08:19.416Z,19.10
2022-10-24T12:11:02.531Z,19.30
2022-10-24T12:13:45.929Z,19.60
2022-10-24T12:16:25.605Z,19.40
2022-10-24T12:18:59.940Z,19.30
2022-10-24T12:21:29.803Z,19.20
2022-10-24T12:24:00.470Z,19.30
2022-10-24T12:26:30.377Z,19.20
2022-10-24T12:29:01.257Z,19.20
2022-10-24T12:31:31.238Z,19.20
2022-10-24T12:34:48.949Z,19.10
2022-10-24T12:37:35.109Z,19.10
2022-10-24T12:40:54.384Z,19.10
2022-10-24T12:43:34.033Z,19.10
2022-10-24T12:46:31.689Z,19.00
2022-10-24T12:49:19.455Z,19.10
2022-10-24T12:51:48.617Z,19.00
2022-10-24T12:54:18.904Z,19.00
2022-10-24T12:57:23.640Z,18.90
2022-10-24T12:59:54.892Z,18.90
2022-10-24T13:02:56.290Z,18.90
2022-10-24T13:05:42.733Z,18.80
2022-10-24T13:08:25.265Z,18.80
2022-10-24T13:11:11.131Z,18.80
2022-10-24T13:14:10.592Z,18.80
2022-10-24T13:16:48.011Z,18.80
2022-10-24T13:19:22.027Z,18.90
2022-10-24T13:21:51.284Z,18.90
2022-10-24T13:24:27.506Z,18.90
2022-10-24T13:27:27.811Z,18.90
2022-10-24T13:30:34.579Z,18.90
2022-10-24T13:33:41.093Z,18.90
2022-10-24T13:36:17.636Z,18.90
2022-10-24T13:38:51.860Z,18.90
2022-10-24T13:41:26.442Z,18.90
2022-10-24T13:43:57.887Z,18.90
2022-10-24T13:46:32.733Z,18.90
2022-10-24T13:49:02.687Z,19.00
2022-10-24T13:51:37.947Z,19.00
2022-10-24T13:54:12.270Z,19.00
2022-10-24T13:56:44.285Z,19.00
2022-10-24T13:59:28.346Z,19.10
2022-10-24T14:01:58.658Z,19.10
2022-10-24T14:04:27.279Z,19.10
2022-10-24T14:07:02.171Z,19.20
2022-10-24T14:09:30.361Z,19.20
2022-10-24T14:11:59.254Z,19.10
2022-10-24T14:14:30.278Z,19.10
2022-10-24T14:17:09.849Z,19.00
2022-10-24T14:19:44.362Z,19.00
2022-10-24T14:22:22.298Z,19.00
2022-10-24T14:24:50.747Z,19.00
2022-10-24T14:27:20.953Z,18.90
2022-10-24T14:30:00.979Z,18.90
2022-10-24T14:32:30.957Z,18.90
2022-10-24T14:37:34.395Z,19.00
2022-10-24T14:40:03.097Z,19.00
2022-10-24T14:42:32.425Z,19.00
2022-10-24T14:45:00.759Z,19.00
2022-10-24T14:47:31.376Z,19.00
2022-10-24T14:50:02.317Z,19.00
2022-10-24T14:52:36.919Z,19.10
2022-10-24T14:55:07.195Z,19.10
2022-10-24T14:57:37.747Z,19.10
2022-10-24T15:00:08.381Z,19.10
2022-10-24T15:02:42.914Z,19.10
2022-10-24T15:05:30.696Z,19.10
2022-10-24T15:08:28.051Z,19.10
2022-10-24T15:11:07.344Z,19.00
2022-10-24T15:13:48.134Z,19.00
2022-10-24T15:16:30.009Z,19.00
2022-10-24T15:18:59.394Z,18.90
2022-10-24T15:21:31.982Z,18.80
2022-10-24T15:24:02.530Z,18.80
2022-10-24T15:26:35.798Z,18.80
2022-10-24T15:29:17.781Z,18.80
2022-10-24T15:31:48.057Z,18.90
2022-10-24T15:34:17.281Z,18.90
2022-10-24T15:36:46.943Z,18.90
2022-10-24T15:39:18.623Z,19.00
2022-10-24T15:41:46.715Z,19.10
2022-10-24T15:44:18.045Z,19.20
2022-10-24T15:46:46.659Z,19.30
2022-10-24T15:49:15.278Z,19.20
2022-10-24T15:51:48.951Z,19.20
2022-10-24T15:54:22.111Z,19.10
2022-10-24T15:56:50.659Z,18.90
2022-10-24T15:59:19.984Z,18.80
2022-10-24T16:01:52.614Z,18.60
2022-10-24T16:04:21.614Z,18.50
2022-10-24T16:06:49.766Z,18.40
2022-10-24T16:09:22.656Z,18.40
2022-10-24T16:11:50.730Z,18.30
2022-10-24T16:14:20.191Z,18.30
2022-10-24T16:16:48.790Z,18.30
2022-10-24T16:19:16.860Z,18.30
2022-10-24T16:21:44.958Z,18.20
2022-10-24T16:24:14.183Z,18.20
2022-10-24T16:26:43.598Z,18.20
2022-10-24T16:29:12.046Z,18.20
2022-10-24T16:31:40.016Z,18.10
2022-10-24T16:34:08.840Z,18.10
2022-10-24T16:36:37.027Z,18.10
2022-10-24T16:39:05.381Z,18.10
2022-10-24T16:41:33.549Z,18.10
2022-10-24T16:44:03.853Z,18.00
2022-10-24T16:46:32.194Z,18.00
2022-10-24T16:49:00.312Z,18.00
2022-10-24T16:51:32.026Z,17.90
2022-10-24T16:54:00.798Z,18.00
2022-10-24T16:56:29.289Z,18.00
2022-10-24T16:58:57.321Z,18.00
2022-10-24T17:01:27.842Z,18.00
2022-10-24T17:03:56.296Z,17.90
2022-10-24T17:06:24.383Z,17.90
2022-10-24T17:08:52.656Z,17.90
2022-10-24T17:11:43.694Z,18.00
2022-10-24T17:14:10.002Z,17.90
2022-10-24T17:16:39.589Z,17.90
2022-10-24T17:19:16.600Z,18.00
2022-10-24T17:21:47.101Z,17.90
2022-10-24T17:24:17.082Z,17.90
2022-10-24T17:26:45.709Z,17.90
2022-10-24T17:29:16.099Z,17.90
2022-10-24T17:31:45.780Z,17.90
2022-10-24T17:34:13.986Z,17.90
2022-10-24T17:36:47.323Z,17.80
2022-10-24T17:39:19.446Z,17.80
2022-10-24T17:41:47.915Z,17.80
2022-10-24T17:44:18.906Z,17.80
2022-10-24T17:46:48.738Z,17.80
2022-10-24T17:49:20.868Z,17.80
2022-10-24T17:51:50.384Z,17.80
2022-10-24T17:54:18.646Z,17.80
2022-10-24T17:56:46.621Z,17.80
2022-10-24T17:59:15.020Z,17.80
2022-10-24T18:01:43.810Z,17.80
2022-10-24T18:04:13.366Z,17.80
2022-10-24T18:06:43.406Z,17.80
2022-10-24T18:09:12.278Z,17.80
2022-10-24T18:11:40.700Z,17.80
2022-10-24T18:14:09.151Z,17.80
2022-10-24T18:16:39.471Z,17.70
2022-10-24T18:19:08.124Z,17.70
2022-10-24T18:21:37.562Z,17.70
2022-10-24T18:24:08.047Z,17.70
2022-10-24T18:26:36.177Z,17.70
2022-10-24T18:29:04.286Z,17.70
2022-10-24T18:31:33.942Z,17.70
2022-10-24T18:34:06.203Z,17.70
2022-10-24T18:36:37.960Z,17.70
2022-10-24T18:39:06.754Z,17.60
2022-10-24T18:41:43.602Z,17.70
2022-10-24T18:44:27.530Z,17.70
2022-10-24T18:46:57.916Z,17.70
2022-10-24T18:49:26.513Z,17.60
2022-10-24T18:52:18.922Z,17.60
2022-10-24T18:54:54.989Z,17.60
2022-10-24T18:57:25.580Z,17.50
2022-10-24T18:59:53.795Z,17.50
2022-10-24T19:02:36.927Z,17.40
2022-10-24T19:05:24.257Z,17.40
2022-10-24T19:07:53.932Z,17.40
2022-10-24T19:10:24.969Z,17.40
2022-10-24T19:12:54.266Z,17.40
2022-10-24T19:15:23.332Z,17.40
2022-10-24T19:17:52.430Z,17.40
2022-10-24T19:20:23.953Z,17.40
2022-10-24T19:22:53.656Z,17.40
2022-10-24T19:25:21.618Z,17.40
2022-10-24T19:30:24.312Z,17.30
2022-10-24T19:32:52.337Z,17.30
2022-10-24T19:35:20.359Z,17.30
2022-10-24T19:37:48.808Z,17.30
2022-10-24T19:40:18.434Z,17.30
2022-10-24T19:42:46.951Z,17.20
2022-10-24T19:45:15.064Z,17.20
2022-10-24T19:47:43.659Z,17.20
2022-10-24T19:50:12.614Z,17.20
2022-10-24T19:52:40.981Z,17.10
2022-10-24T19:55:09.442Z,17.10
2022-10-24T19:57:41.327Z,17.10
2022-10-24T20:00:10.804Z,17.10
2022-10-24T20:02:41.819Z,17.00
2022-10-24T20:05:10.445Z,17.00
2022-10-24T20:07:38.501Z,17.00
2022-10-24T20:10:07.578Z,16.90
2022-10-24T20:12:37.819Z,16.90
2022-10-24T20:15:10.331Z,16.90
2022-10-24T20:17:38.764Z,16.90
2022-10-24T20:20:09.423Z,16.80
2022-10-24T20:22:37.567Z,16.90
2022-10-24T20:25:06.622Z,16.90
2022-10-24T20:27:34.695Z,16.80
2022-10-24T20:30:02.696Z,16.80
2022-10-24T20:32:32.148Z,16.80
2022-10-24T20:35:00.206Z,16.80
2022-10-24T20:37:28.199Z,16.70
2022-10-24T20:39:56.192Z,16.70
2022-10-24T20:42:24.200Z,16.70
2022-10-24T20:44:52.216Z,16.70
2022-10-24T20:47:20.161Z,16.70
2022-10-24T20:49:49.464Z,16.70
2022-10-24T20:52:17.514Z,16.70
2022-10-24T20:54:45.655Z,16.60
2022-10-24T20:57:13.699Z,16.70
2022-10-24T20:59:41.863Z,16.70
2022-10-24T21:02:10.585Z,16.70
2022-10-24T21:04:38.820Z,16.70
2022-10-24T21:07:08.210Z,16.70
2022-10-24T21:09:36.175Z,16.70
2022-10-24T21:12:04.761Z,16.70
2022-10-24T21:14:32.761Z,16.70
2022-10-24T21:17:01.110Z,16.70
2022-10-24T21:19:30.424Z,16.70
2022-10-24T21:21:58.453Z,16.70
2022-10-24T21:24:27.783Z,16.70
2022-10-24T21:26:55.843Z,16.60
2022-10-24T21:29:39.355Z,16.60
2022-10-24T21:32:07.427Z,16.60
2022-10-24T21:34:35.443Z,16.50
2022-10-24T21:37:04.744Z,16.50
2022-10-24T21:39:34.142Z,16.50
2022-10-24T21:42:02.229Z,16.60
2022-10-24T21:44:30.609Z,16.50
2022-10-24T21:46:58.619Z,16.50
2022-10-24T21:49:27.606Z,16.50
2022-10-24T21:51:55.771Z,16.40
2022-10-24T21:54:26.050Z,16.40
2022-10-24T21:56:55.479Z,16.40
2022-10-24T21:59:23.986Z,16.40
2022-10-24T22:01:53.253Z,16.40
2022-10-24T22:04:21.929Z,16.50
2022-10-24T22:06:50.154Z,16.50
2022-10-24T22:09:20.800Z,16.50
2022-10-24T22:11:48.817Z,16.40
2022-10-24T22:14:18.702Z,16.40
2022-10-24T22:16:47.210Z,16.40
2022-10-24T22:19:15.534Z,16.30
2022-10-24T22:21:45.742Z,16.30
2022-10-24T22:24:16.544Z,16.30
2022-10-24T22:26:45.046Z,16.30
2022-10-24T22:29:16.610Z,16.20
2022-10-24T22:31:46.886Z,16.20
2022-10-24T22:34:17.854Z,16.20
2022-10-24T22:36:55.202Z,16.20
2022-10-24T22:39:25.174Z,16.10
2022-10-24T22:41:53.978Z,16.10
2022-10-24T22:44:22.880Z,16.10
2022-10-24T22:47:15.811Z,16.00
2022-10-24T22:49:54.896Z,16.00
2022-10-24T22:52:23.544Z,16.00
2022-10-24T22:54:52.224Z,15.90
2022-10-24T22:57:20.881Z,15.90
2022-10-24T22:59:49.542Z,15.90
2022-10-24T23:02:29.190Z,15.90
2022-10-24T23:05:07.291Z,15.90
2022-10-24T23:07:45.853Z,15.90
2022-10-24T23:10:19.621Z,16.00
2022-10-24T23:12:48.516Z,16.00
2022-10-24T23:15:19.273Z,16.10
2022-10-24T23:17:50.146Z,16.10
2022-10-24T23:20:28.110Z,16.00
2022-10-24T23:23:09.439Z,16.00
2022-10-24T23:25:51.222Z,16.00
2022-10-24T23:28:25.980Z,15.90
2022-10-24T23:30:54.741Z,15.90
2022-10-24T23:33:27.338Z,15.90
2022-10-24T23:35:59.473Z,15.90
2022-10-24T23:38:28.400Z,15.90
2022-10-24T23:40:57.632Z,15.90
2022-10-24T23:43:26.426Z,15.90
2022-10-24T23:45:59.099Z,15.80
2022-10-24T23:48:45.113Z,15.90
2022-10-24T23:51:16.013Z,15.80
2022-10-24T23:53:50.316Z,15.80
2022-10-24T23:56:20.421Z,15.80
2022-10-24T23:58:48.598Z,15.70
